sensor_id;sensor_type;location;lat;lon;timestamp;P1;durP1;ratioP1;P2;durP2;ratioP2
8819;SDS011;4446;50.876;4.736;2023-11-22T00:02:15;12.52;;;6.32;;
8819;SDS011;4446;50.876;4.736;2023-11-22T00:04:42;14.95;;;6.88;;
8819;SDS011;4446;50.876;4.736;2023-11-22T00:07:09;16.27;;;7.18;;
8819;SDS011;4446;50.876;4.736;2023-11-22T00:09:36;12.98;;;6.43;;
8819;SDS011;4446;50.876;4.736;2023-11-22T00:12:03;14.93;;;7.38;;
8819;SDS011;4446;50.876;4.736;2023-11-22T00:14:31;15.95;;;7.35;;
8819;SDS011;4446;50.876;4.736;2023-11-22T00:17:00;13.43;;;7.55;;
8819;SDS011;4446;50.876;4.736;2023-11-22T00:19:27;15.85;;;7.82;;
8819;SDS011;4446;50.876;4.736;2023-11-22T00:21:54;15.50;;;7.00;;
8819;SDS011;4446;50.876;4.736;2023-11-22T00:24:21;12.75;;;6.75;;
8819;SDS011;4446;50.876;4.736;2023-11-22T00:26:47;12.77;;;7.25;;
8819;SDS011;4446;50.876;4.736;2023-11-22T00:29:14;18.17;;;7.65;;
8819;SDS011;4446;50.876;4.736;2023-11-22T00:31:41;14.63;;;7.05;;
8819;SDS011;4446;50.876;4.736;2023-11-22T00:34:11;16.40;;;7.85;;
8819;SDS011;4446;50.876;4.736;2023-11-22T00:36:38;17.42;;;7.70;;
8819;SDS011;4446;50.876;4.736;2023-11-22T00:39:05;18.45;;;8.15;;
8819;SDS011;4446;50.876;4.736;2023-11-22T00:41:34;17.55;;;7.85;;
8819;SDS011;4446;50.876;4.736;2023-11-22T00:44:01;21.13;;;9.35;;
8819;SDS011;4446;50.876;4.736;2023-11-22T00:46:29;17.90;;;9.10;;
8819;SDS011;4446;50.876;4.736;2023-11-22T00:48:56;17.35;;;8.63;;
8819;SDS011;4446;50.876;4.736;2023-11-22T00:51:24;17.05;;;7.72;;
8819;SDS011;4446;50.876;4.736;2023-11-22T00:53:51;17.45;;;7.43;;
8819;SDS011;4446;50.876;4.736;2023-11-22T00:56:18;16.38;;;7.45;;
8819;SDS011;4446;50.876;4.736;2023-11-22T00:58:45;16.05;;;7.63;;
8819;SDS011;4446;50.876;4.736;2023-11-22T01:01:14;16.67;;;7.97;;
8819;SDS011;4446;50.876;4.736;2023-11-22T01:03:41;17.58;;;8.60;;
8819;SDS011;4446;50.876;4.736;2023-11-22T01:06:08;15.85;;;7.82;;
8819;SDS011;4446;50.876;4.736;2023-11-22T01:08:36;17.48;;;7.47;;
8819;SDS011;4446;50.876;4.736;2023-11-22T01:11:03;18.08;;;8.05;;
8819;SDS011;4446;50.876;4.736;2023-11-22T01:13:32;17.02;;;8.30;;
8819;SDS011;4446;50.876;4.736;2023-11-22T01:16:05;15.38;;;7.47;;
8819;SDS011;4446;50.876;4.736;2023-11-22T01:18:32;15.00;;;7.35;;
8819;SDS011;4446;50.876;4.736;2023-11-22T01:20:59;17.30;;;8.60;;
8819;SDS011;4446;50.876;4.736;2023-11-22T01:23:26;18.25;;;8.23;;
8819;SDS011;4446;50.876;4.736;2023-11-22T01:25:55;17.98;;;7.82;;
8819;SDS011;4446;50.876;4.736;2023-11-22T01:28:22;18.05;;;8.52;;
8819;SDS011;4446;50.876;4.736;2023-11-22T01:30:49;13.73;;;7.03;;
8819;SDS011;4446;50.876;4.736;2023-11-22T01:33:16;18.15;;;7.97;;
8819;SDS011;4446;50.876;4.736;2023-11-22T01:35:43;18.88;;;8.10;;
8819;SDS011;4446;50.876;4.736;2023-11-22T01:38:09;14.95;;;7.03;;
8819;SDS011;4446;50.876;4.736;2023-11-22T01:40:42;18.92;;;8.45;;
8819;SDS011;4446;50.876;4.736;2023-11-22T01:43:14;16.77;;;7.85;;
8819;SDS011;4446;50.876;4.736;2023-11-22T01:45:41;15.95;;;8.43;;
8819;SDS011;4446;50.876;4.736;2023-11-22T01:48:09;16.63;;;6.95;;
8819;SDS011;4446;50.876;4.736;2023-11-22T01:50:37;15.80;;;7.55;;
8819;SDS011;4446;50.876;4.736;2023-11-22T01:53:05;18.90;;;8.18;;
8819;SDS011;4446;50.876;4.736;2023-11-22T01:55:33;16.27;;;7.57;;
8819;SDS011;4446;50.876;4.736;2023-11-22T01:58:00;20.83;;;8.63;;
8819;SDS011;4446;50.876;4.736;2023-11-22T02:00:31;17.98;;;7.78;;
8819;SDS011;4446;50.876;4.736;2023-11-22T02:03:14;17.58;;;8.38;;
8819;SDS011;4446;50.876;4.736;2023-11-22T02:05:41;19.40;;;8.60;;
8819;SDS011;4446;50.876;4.736;2023-11-22T02:08:08;16.92;;;7.60;;
8819;SDS011;4446;50.876;4.736;2023-11-22T02:10:35;15.70;;;7.78;;
8819;SDS011;4446;50.876;4.736;2023-11-22T02:13:03;16.48;;;7.43;;
8819;SDS011;4446;50.876;4.736;2023-11-22T02:15:33;17.70;;;8.50;;
8819;SDS011;4446;50.876;4.736;2023-11-22T02:18:01;16.20;;;7.82;;
8819;SDS011;4446;50.876;4.736;2023-11-22T02:20:29;17.52;;;8.63;;
8819;SDS011;4446;50.876;4.736;2023-11-22T02:22:56;17.10;;;7.65;;
8819;SDS011;4446;50.876;4.736;2023-11-22T02:25:24;21.83;;;8.70;;
8819;SDS011;4446;50.876;4.736;2023-11-22T02:27:51;18.15;;;8.20;;
8819;SDS011;4446;50.876;4.736;2023-11-22T02:30:18;16.75;;;8.15;;
8819;SDS011;4446;50.876;4.736;2023-11-22T02:32:46;15.93;;;6.80;;
8819;SDS011;4446;50.876;4.736;2023-11-22T02:35:13;17.50;;;7.97;;
8819;SDS011;4446;50.876;4.736;2023-11-22T02:37:41;17.55;;;7.70;;
8819;SDS011;4446;50.876;4.736;2023-11-22T02:40:12;19.88;;;8.45;;
8819;SDS011;4446;50.876;4.736;2023-11-22T02:42:45;17.17;;;7.40;;
8819;SDS011;4446;50.876;4.736;2023-11-22T02:45:13;17.45;;;8.27;;
8819;SDS011;4446;50.876;4.736;2023-11-22T02:47:40;16.98;;;7.00;;
8819;SDS011;4446;50.876;4.736;2023-11-22T02:50:11;16.85;;;7.82;;
8819;SDS011;4446;50.876;4.736;2023-11-22T02:52:39;20.50;;;9.55;;
8819;SDS011;4446;50.876;4.736;2023-11-22T02:55:06;19.58;;;8.35;;
8819;SDS011;4446;50.876;4.736;2023-11-22T02:57:34;17.13;;;7.10;;
8819;SDS011;4446;50.876;4.736;2023-11-22T03:00:03;20.60;;;8.57;;
8819;SDS011;4446;50.876;4.736;2023-11-22T03:02:32;19.55;;;7.60;;
8819;SDS011;4446;50.876;4.736;2023-11-22T03:04:59;19.58;;;9.38;;
8819;SDS011;4446;50.876;4.736;2023-11-22T03:07:26;20.13;;;8.73;;
8819;SDS011;4446;50.876;4.736;2023-11-22T03:09:53;16.30;;;8.18;;
8819;SDS011;4446;50.876;4.736;2023-11-22T03:12:20;17.45;;;7.45;;
8819;SDS011;4446;50.876;4.736;2023-11-22T03:14:48;13.85;;;7.55;;
8819;SDS011;4446;50.876;4.736;2023-11-22T03:17:16;19.92;;;8.20;;
8819;SDS011;4446;50.876;4.736;2023-11-22T03:19:44;15.35;;;7.45;;
8819;SDS011;4446;50.876;4.736;2023-11-22T03:22:11;18.55;;;8.10;;
8819;SDS011;4446;50.876;4.736;2023-11-22T03:24:38;19.52;;;7.78;;
8819;SDS011;4446;50.876;4.736;2023-11-22T03:27:05;18.27;;;8.70;;
8819;SDS011;4446;50.876;4.736;2023-11-22T03:29:32;15.77;;;7.20;;
8819;SDS011;4446;50.876;4.736;2023-11-22T03:32:00;17.65;;;7.90;;
8819;SDS011;4446;50.876;4.736;2023-11-22T03:34:28;16.58;;;7.57;;
8819;SDS011;4446;50.876;4.736;2023-11-22T03:36:55;17.05;;;7.18;;
8819;SDS011;4446;50.876;4.736;2023-11-22T03:39:22;16.63;;;7.57;;
8819;SDS011;4446;50.876;4.736;2023-11-22T03:41:48;17.25;;;7.20;;
8819;SDS011;4446;50.876;4.736;2023-11-22T03:44:16;14.85;;;7.38;;
8819;SDS011;4446;50.876;4.736;2023-11-22T03:46:43;17.42;;;7.38;;
8819;SDS011;4446;50.876;4.736;2023-11-22T03:49:10;17.45;;;8.38;;
8819;SDS011;4446;50.876;4.736;2023-11-22T03:51:39;14.75;;;7.38;;
8819;SDS011;4446;50.876;4.736;2023-11-22T03:54:07;15.63;;;8.35;;
8819;SDS011;4446;50.876;4.736;2023-11-22T03:56:35;17.48;;;7.38;;
8819;SDS011;4446;50.876;4.736;2023-11-22T03:59:02;14.57;;;6.78;;
8819;SDS011;4446;50.876;4.736;2023-11-22T04:01:29;18.00;;;6.93;;
8819;SDS011;4446;50.876;4.736;2023-11-22T04:03:56;12.90;;;6.43;;
8819;SDS011;4446;50.876;4.736;2023-11-22T04:06:23;16.10;;;7.55;;
8819;SDS011;4446;50.876;4.736;2023-11-22T04:08:51;19.00;;;8.00;;
8819;SDS011;4446;50.876;4.736;2023-11-22T04:11:18;15.05;;;6.65;;
8819;SDS011;4446;50.876;4.736;2023-11-22T04:13:46;14.63;;;7.28;;
8819;SDS011;4446;50.876;4.736;2023-11-22T04:16:13;14.25;;;6.32;;
8819;SDS011;4446;50.876;4.736;2023-11-22T04:18:42;14.65;;;6.82;;
8819;SDS011;4446;50.876;4.736;2023-11-22T04:21:09;16.27;;;6.97;;
8819;SDS011;4446;50.876;4.736;2023-11-22T04:23:36;11.23;;;5.22;;
8819;SDS011;4446;50.876;4.736;2023-11-22T04:26:04;16.35;;;7.55;;
8819;SDS011;4446;50.876;4.736;2023-11-22T04:28:32;14.82;;;6.78;;
8819;SDS011;4446;50.876;4.736;2023-11-22T04:30:59;14.75;;;6.70;;
8819;SDS011;4446;50.876;4.736;2023-11-22T04:33:26;10.25;;;6.05;;
8819;SDS011;4446;50.876;4.736;2023-11-22T04:35:53;13.77;;;6.43;;
8819;SDS011;4446;50.876;4.736;2023-11-22T04:38:21;18.30;;;7.57;;
8819;SDS011;4446;50.876;4.736;2023-11-22T04:40:48;15.85;;;6.55;;
8819;SDS011;4446;50.876;4.736;2023-11-22T04:43:16;16.38;;;7.97;;
8819;SDS011;4446;50.876;4.736;2023-11-22T04:45:43;17.67;;;7.65;;
8819;SDS011;4446;50.876;4.736;2023-11-22T04:48:10;17.27;;;7.63;;
8819;SDS011;4446;50.876;4.736;2023-11-22T04:50:40;13.88;;;6.82;;
8819;SDS011;4446;50.876;4.736;2023-11-22T04:53:07;18.95;;;8.02;;
8819;SDS011;4446;50.876;4.736;2023-11-22T04:55:34;10.80;;;5.60;;
8819;SDS011;4446;50.876;4.736;2023-11-22T04:58:01;12.27;;;6.30;;
8819;SDS011;4446;50.876;4.736;2023-11-22T05:00:30;10.30;;;5.45;;
8819;SDS011;4446;50.876;4.736;2023-11-22T05:02:56;15.05;;;6.35;;
8819;SDS011;4446;50.876;4.736;2023-11-22T05:05:23;13.63;;;7.43;;
8819;SDS011;4446;50.876;4.736;2023-11-22T05:07:50;11.30;;;5.53;;
8819;SDS011;4446;50.876;4.736;2023-11-22T05:10:18;10.23;;;5.35;;
8819;SDS011;4446;50.876;4.736;2023-11-22T05:12:45;11.40;;;5.07;;
8819;SDS011;4446;50.876;4.736;2023-11-22T05:15:12;12.73;;;6.35;;
8819;SDS011;4446;50.876;4.736;2023-11-22T05:17:41;11.50;;;5.97;;
8819;SDS011;4446;50.876;4.736;2023-11-22T05:20:08;11.20;;;5.30;;
8819;SDS011;4446;50.876;4.736;2023-11-22T05:22:35;13.98;;;6.55;;
8819;SDS011;4446;50.876;4.736;2023-11-22T05:25:03;11.18;;;5.72;;
8819;SDS011;4446;50.876;4.736;2023-11-22T05:27:31;13.55;;;6.70;;
8819;SDS011;4446;50.876;4.736;2023-11-22T05:29:58;8.60;;;5.13;;
8819;SDS011;4446;50.876;4.736;2023-11-22T05:32:26;15.65;;;7.10;;
8819;SDS011;4446;50.876;4.736;2023-11-22T05:34:55;13.20;;;6.15;;
8819;SDS011;4446;50.876;4.736;2023-11-22T05:37:22;11.93;;;6.13;;
8819;SDS011;4446;50.876;4.736;2023-11-22T05:39:49;13.90;;;6.38;;
8819;SDS011;4446;50.876;4.736;2023-11-22T05:42:16;14.25;;;6.63;;
8819;SDS011;4446;50.876;4.736;2023-11-22T05:44:43;18.50;;;7.57;;
8819;SDS011;4446;50.876;4.736;2023-11-22T05:47:10;18.85;;;8.00;;
8819;SDS011;4446;50.876;4.736;2023-11-22T05:49:38;15.02;;;7.30;;
8819;SDS011;4446;50.876;4.736;2023-11-22T05:52:06;16.25;;;6.43;;
8819;SDS011;4446;50.876;4.736;2023-11-22T05:54:33;19.70;;;7.80;;
8819;SDS011;4446;50.876;4.736;2023-11-22T05:57:00;19.70;;;8.30;;
8819;SDS011;4446;50.876;4.736;2023-11-22T05:59:27;15.60;;;7.18;;
8819;SDS011;4446;50.876;4.736;2023-11-22T06:01:54;21.73;;;8.25;;
8819;SDS011;4446;50.876;4.736;2023-11-22T06:04:21;17.65;;;6.97;;
8819;SDS011;4446;50.876;4.736;2023-11-22T06:06:48;16.75;;;6.85;;
8819;SDS011;4446;50.876;4.736;2023-11-22T06:09:17;15.65;;;6.57;;
8819;SDS011;4446;50.876;4.736;2023-11-22T06:11:44;17.55;;;7.70;;
8819;SDS011;4446;50.876;4.736;2023-11-22T06:14:11;20.25;;;8.30;;
8819;SDS011;4446;50.876;4.736;2023-11-22T06:16:38;19.42;;;8.45;;
8819;SDS011;4446;50.876;4.736;2023-11-22T06:19:05;20.77;;;7.95;;
8819;SDS011;4446;50.876;4.736;2023-11-22T06:21:32;18.73;;;7.93;;
8819;SDS011;4446;50.876;4.736;2023-11-22T06:24:00;17.13;;;8.02;;
8819;SDS011;4446;50.876;4.736;2023-11-22T06:26:30;19.90;;;8.98;;
8819;SDS011;4446;50.876;4.736;2023-11-22T06:28:57;16.80;;;7.32;;
8819;SDS011;4446;50.876;4.736;2023-11-22T06:31:24;18.20;;;7.65;;
8819;SDS011;4446;50.876;4.736;2023-11-22T06:33:51;19.95;;;7.85;;
8819;SDS011;4446;50.876;4.736;2023-11-22T06:36:18;17.85;;;8.10;;
8819;SDS011;4446;50.876;4.736;2023-11-22T06:38:45;18.52;;;7.60;;
8819;SDS011;4446;50.876;4.736;2023-11-22T06:41:12;19.92;;;8.30;;
8819;SDS011;4446;50.876;4.736;2023-11-22T06:43:40;19.55;;;8.50;;
8819;SDS011;4446;50.876;4.736;2023-11-22T06:46:07;18.55;;;8.18;;
8819;SDS011;4446;50.876;4.736;2023-11-22T06:48:34;19.85;;;8.75;;
8819;SDS011;4446;50.876;4.736;2023-11-22T06:51:01;20.55;;;8.48;;
8819;SDS011;4446;50.876;4.736;2023-11-22T06:53:28;22.40;;;8.82;;
8819;SDS011;4446;50.876;4.736;2023-11-22T06:55:55;19.38;;;8.75;;
8819;SDS011;4446;50.876;4.736;2023-11-22T06:58:22;20.73;;;7.80;;
8819;SDS011;4446;50.876;4.736;2023-11-22T07:00:51;16.88;;;7.65;;
8819;SDS011;4446;50.876;4.736;2023-11-22T07:03:17;16.05;;;7.47;;
8819;SDS011;4446;50.876;4.736;2023-11-22T07:05:45;19.98;;;8.43;;
8819;SDS011;4446;50.876;4.736;2023-11-22T07:08:12;20.77;;;8.43;;
8819;SDS011;4446;50.876;4.736;2023-11-22T07:10:41;20.02;;;7.50;;
8819;SDS011;4446;50.876;4.736;2023-11-22T07:13:10;21.60;;;8.93;;
8819;SDS011;4446;50.876;4.736;2023-11-22T07:15:37;21.27;;;7.97;;
8819;SDS011;4446;50.876;4.736;2023-11-22T07:18:07;18.40;;;7.82;;
8819;SDS011;4446;50.876;4.736;2023-11-22T07:20:35;23.10;;;8.65;;
8819;SDS011;4446;50.876;4.736;2023-11-22T07:23:02;23.10;;;8.30;;
8819;SDS011;4446;50.876;4.736;2023-11-22T07:25:29;24.50;;;8.68;;
8819;SDS011;4446;50.876;4.736;2023-11-22T07:27:56;22.92;;;8.52;;
8819;SDS011;4446;50.876;4.736;2023-11-22T07:30:25;24.05;;;10.07;;
8819;SDS011;4446;50.876;4.736;2023-11-22T07:32:55;22.70;;;9.00;;
8819;SDS011;4446;50.876;4.736;2023-11-22T07:35:25;24.63;;;8.70;;
8819;SDS011;4446;50.876;4.736;2023-11-22T07:37:53;24.02;;;9.25;;
8819;SDS011;4446;50.876;4.736;2023-11-22T07:40:20;26.05;;;9.60;;
8819;SDS011;4446;50.876;4.736;2023-11-22T07:42:48;22.15;;;7.55;;
8819;SDS011;4446;50.876;4.736;2023-11-22T07:45:15;23.42;;;8.48;;
8819;SDS011;4446;50.876;4.736;2023-11-22T07:47:42;21.25;;;8.25;;
8819;SDS011;4446;50.876;4.736;2023-11-22T07:50:09;22.45;;;9.32;;
8819;SDS011;4446;50.876;4.736;2023-11-22T07:52:38;25.65;;;9.15;;
8819;SDS011;4446;50.876;4.736;2023-11-22T07:55:06;23.75;;;9.25;;
8819;SDS011;4446;50.876;4.736;2023-11-22T07:57:35;19.95;;;8.23;;
8819;SDS011;4446;50.876;4.736;2023-11-22T08:00:02;21.20;;;7.95;;
8819;SDS011;4446;50.876;4.736;2023-11-22T08:02:32;21.70;;;8.07;;
8819;SDS011;4446;50.876;4.736;2023-11-22T08:04:59;23.40;;;8.55;;
8819;SDS011;4446;50.876;4.736;2023-11-22T08:07:28;18.75;;;7.45;;
8819;SDS011;4446;50.876;4.736;2023-11-22T08:09:59;24.25;;;8.32;;
8819;SDS011;4446;50.876;4.736;2023-11-22T08:12:34;23.23;;;9.45;;
8819;SDS011;4446;50.876;4.736;2023-11-22T08:15:01;24.92;;;9.50;;
8819;SDS011;4446;50.876;4.736;2023-11-22T08:17:28;23.35;;;9.15;;
8819;SDS011;4446;50.876;4.736;2023-11-22T08:19:57;24.05;;;9.52;;
8819;SDS011;4446;50.876;4.736;2023-11-22T08:22:25;18.73;;;8.07;;
8819;SDS011;4446;50.876;4.736;2023-11-22T08:24:54;18.08;;;7.18;;
8819;SDS011;4446;50.876;4.736;2023-11-22T08:27:24;20.05;;;7.85;;
8819;SDS011;4446;50.876;4.736;2023-11-22T08:29:51;20.83;;;8.52;;
8819;SDS011;4446;50.876;4.736;2023-11-22T08:32:17;21.20;;;8.65;;
8819;SDS011;4446;50.876;4.736;2023-11-22T08:34:48;19.27;;;7.65;;
8819;SDS011;4446;50.876;4.736;2023-11-22T08:37:15;20.83;;;7.55;;
8819;SDS011;4446;50.876;4.736;2023-11-22T08:39:42;20.80;;;7.40;;
8819;SDS011;4446;50.876;4.736;2023-11-22T08:42:09;17.98;;;8.13;;
8819;SDS011;4446;50.876;4.736;2023-11-22T08:44:38;24.38;;;9.65;;
8819;SDS011;4446;50.876;4.736;2023-11-22T08:47:05;21.55;;;8.68;;
8819;SDS011;4446;50.876;4.736;2023-11-22T08:49:33;18.45;;;7.72;;
8819;SDS011;4446;50.876;4.736;2023-11-22T08:52:00;20.45;;;8.07;;
8819;SDS011;4446;50.876;4.736;2023-11-22T08:54:28;21.73;;;8.70;;
8819;SDS011;4446;50.876;4.736;2023-11-22T08:56:55;24.02;;;9.32;;
8819;SDS011;4446;50.876;4.736;2023-11-22T08:59:22;28.45;;;9.13;;
8819;SDS011;4446;50.876;4.736;2023-11-22T09:01:50;22.80;;;9.32;;
8819;SDS011;4446;50.876;4.736;2023-11-22T09:04:17;22.98;;;9.30;;
8819;SDS011;4446;50.876;4.736;2023-11-22T09:06:45;18.00;;;7.93;;
8819;SDS011;4446;50.876;4.736;2023-11-22T09:09:12;20.05;;;8.25;;
8819;SDS011;4446;50.876;4.736;2023-11-22T09:11:41;19.95;;;8.02;;
8819;SDS011;4446;50.876;4.736;2023-11-22T09:14:08;21.05;;;8.25;;
8819;SDS011;4446;50.876;4.736;2023-11-22T09:16:35;19.17;;;8.00;;
8819;SDS011;4446;50.876;4.736;2023-11-22T09:19:05;18.13;;;8.10;;
8819;SDS011;4446;50.876;4.736;2023-11-22T09:21:32;18.33;;;7.80;;
8819;SDS011;4446;50.876;4.736;2023-11-22T09:24:00;21.17;;;8.65;;
8819;SDS011;4446;50.876;4.736;2023-11-22T09:26:27;19.38;;;7.60;;
8819;SDS011;4446;50.876;4.736;2023-11-22T09:28:54;19.52;;;8.07;;
8819;SDS011;4446;50.876;4.736;2023-11-22T09:31:21;20.05;;;8.48;;
8819;SDS011;4446;50.876;4.736;2023-11-22T09:33:48;18.33;;;6.70;;
8819;SDS011;4446;50.876;4.736;2023-11-22T09:36:17;16.23;;;7.18;;
8819;SDS011;4446;50.876;4.736;2023-11-22T09:38:44;14.93;;;7.28;;
8819;SDS011;4446;50.876;4.736;2023-11-22T09:41:12;17.67;;;8.43;;
8819;SDS011;4446;50.876;4.736;2023-11-22T09:43:41;20.45;;;8.45;;
8819;SDS011;4446;50.876;4.736;2023-11-22T09:46:09;20.05;;;8.90;;
8819;SDS011;4446;50.876;4.736;2023-11-22T09:48:37;18.08;;;8.05;;
8819;SDS011;4446;50.876;4.736;2023-11-22T09:51:08;16.60;;;7.75;;
8819;SDS011;4446;50.876;4.736;2023-11-22T09:53:46;15.13;;;7.90;;
8819;SDS011;4446;50.876;4.736;2023-11-22T09:56:18;19.48;;;8.25;;
8819;SDS011;4446;50.876;4.736;2023-11-22T09:58:46;17.70;;;8.70;;
8819;SDS011;4446;50.876;4.736;2023-11-22T10:01:16;16.45;;;7.05;;
8819;SDS011;4446;50.876;4.736;2023-11-22T10:03:43;17.95;;;8.27;;
8819;SDS011;4446;50.876;4.736;2023-11-22T10:06:11;17.05;;;7.47;;
8819;SDS011;4446;50.876;4.736;2023-11-22T10:08:40;15.35;;;7.38;;
8819;SDS011;4446;50.876;4.736;2023-11-22T10:11:08;15.00;;;6.88;;
8819;SDS011;4446;50.876;4.736;2023-11-22T10:13:35;14.65;;;7.50;;
8819;SDS011;4446;50.876;4.736;2023-11-22T10:16:08;15.20;;;7.10;;
8819;SDS011;4446;50.876;4.736;2023-11-22T10:18:39;16.98;;;7.60;;
8819;SDS011;4446;50.876;4.736;2023-11-22T10:21:16;14.60;;;6.30;;
8819;SDS011;4446;50.876;4.736;2023-11-22T10:23:46;18.13;;;8.13;;
8819;SDS011;4446;50.876;4.736;2023-11-22T10:26:15;16.15;;;7.63;;
8819;SDS011;4446;50.876;4.736;2023-11-22T10:28:42;17.70;;;7.93;;
8819;SDS011;4446;50.876;4.736;2023-11-22T10:31:10;19.48;;;8.63;;
8819;SDS011;4446;50.876;4.736;2023-11-22T10:33:38;16.17;;;8.15;;
8819;SDS011;4446;50.876;4.736;2023-11-22T10:36:07;13.02;;;7.07;;
8819;SDS011;4446;50.876;4.736;2023-11-22T10:38:34;15.05;;;7.75;;
8819;SDS011;4446;50.876;4.736;2023-11-22T10:41:03;15.10;;;7.28;;
8819;SDS011;4446;50.876;4.736;2023-11-22T10:43:31;14.48;;;7.15;;
8819;SDS011;4446;50.876;4.736;2023-11-22T10:46:01;13.85;;;7.22;;
8819;SDS011;4446;50.876;4.736;2023-11-22T10:48:30;14.32;;;7.03;;
8819;SDS011;4446;50.876;4.736;2023-11-22T10:50:59;14.73;;;6.90;;
8819;SDS011;4446;50.876;4.736;2023-11-22T10:53:31;15.35;;;7.75;;
8819;SDS011;4446;50.876;4.736;2023-11-22T10:56:02;16.27;;;6.80;;
8819;SDS011;4446;50.876;4.736;2023-11-22T10:58:33;14.02;;;6.13;;
8819;SDS011;4446;50.876;4.736;2023-11-22T11:01:04;15.38;;;6.10;;
8819;SDS011;4446;50.876;4.736;2023-11-22T11:03:32;14.20;;;6.50;;
8819;SDS011;4446;50.876;4.736;2023-11-22T11:06:07;13.15;;;6.55;;
8819;SDS011;4446;50.876;4.736;2023-11-22T11:08:38;10.30;;;5.63;;
8819;SDS011;4446;50.876;4.736;2023-11-22T11:11:08;17.40;;;6.90;;
8819;SDS011;4446;50.876;4.736;2023-11-22T11:13:37;10.07;;;4.63;;
8819;SDS011;4446;50.876;4.736;2023-11-22T11:16:05;13.68;;;6.22;;
8819;SDS011;4446;50.876;4.736;2023-11-22T11:18:33;12.10;;;5.82;;
8819;SDS011;4446;50.876;4.736;2023-11-22T11:21:06;13.65;;;6.57;;
8819;SDS011;4446;50.876;4.736;2023-11-22T11:23:38;11.07;;;5.88;;
8819;SDS011;4446;50.876;4.736;2023-11-22T11:26:08;12.82;;;5.93;;
8819;SDS011;4446;50.876;4.736;2023-11-22T11:28:43;9.38;;;5.57;;
8819;SDS011;4446;50.876;4.736;2023-11-22T11:31:12;12.80;;;6.63;;
8819;SDS011;4446;50.876;4.736;2023-11-22T11:33:53;14.20;;;6.00;;
8819;SDS011;4446;50.876;4.736;2023-11-22T11:36:21;11.18;;;5.75;;
8819;SDS011;4446;50.876;4.736;2023-11-22T11:38:50;9.90;;;5.55;;
8819;SDS011;4446;50.876;4.736;2023-11-22T11:41:17;11.90;;;6.30;;
8819;SDS011;4446;50.876;4.736;2023-11-22T11:43:47;11.13;;;5.78;;
8819;SDS011;4446;50.876;4.736;2023-11-22T11:46:15;10.60;;;5.68;;
8819;SDS011;4446;50.876;4.736;2023-11-22T11:48:43;13.27;;;6.28;;
8819;SDS011;4446;50.876;4.736;2023-11-22T11:51:13;12.80;;;6.18;;
8819;SDS011;4446;50.876;4.736;2023-11-22T11:53:40;12.18;;;5.47;;
8819;SDS011;4446;50.876;4.736;2023-11-22T11:56:08;10.32;;;5.60;;
8819;SDS011;4446;50.876;4.736;2023-11-22T11:58:36;9.40;;;4.78;;
8819;SDS011;4446;50.876;4.736;2023-11-22T12:01:04;10.23;;;5.25;;
8819;SDS011;4446;50.876;4.736;2023-11-22T12:03:32;10.57;;;5.50;;
8819;SDS011;4446;50.876;4.736;2023-11-22T12:05:59;12.60;;;6.07;;
8819;SDS011;4446;50.876;4.736;2023-11-22T12:08:26;11.55;;;5.63;;
8819;SDS011;4446;50.876;4.736;2023-11-22T12:10:55;9.15;;;5.28;;
8819;SDS011;4446;50.876;4.736;2023-11-22T12:13:24;10.75;;;5.18;;
8819;SDS011;4446;50.876;4.736;2023-11-22T12:15:51;8.98;;;5.32;;
8819;SDS011;4446;50.876;4.736;2023-11-22T12:18:21;11.10;;;5.80;;
8819;SDS011;4446;50.876;4.736;2023-11-22T12:20:54;12.85;;;6.53;;
8819;SDS011;4446;50.876;4.736;2023-11-22T12:23:23;10.77;;;5.47;;
8819;SDS011;4446;50.876;4.736;2023-11-22T12:25:54;9.98;;;5.32;;
8819;SDS011;4446;50.876;4.736;2023-11-22T12:28:22;11.50;;;5.28;;
8819;SDS011;4446;50.876;4.736;2023-11-22T12:30:50;11.45;;;5.60;;
8819;SDS011;4446;50.876;4.736;2023-11-22T12:33:17;10.15;;;5.55;;
8819;SDS011;4446;50.876;4.736;2023-11-22T12:35:46;9.93;;;5.43;;
8819;SDS011;4446;50.876;4.736;2023-11-22T12:38:14;10.75;;;5.68;;
8819;SDS011;4446;50.876;4.736;2023-11-22T12:40:44;13.05;;;6.35;;
8819;SDS011;4446;50.876;4.736;2023-11-22T12:43:12;8.93;;;5.15;;
8819;SDS011;4446;50.876;4.736;2023-11-22T12:45:40;9.85;;;5.38;;
8819;SDS011;4446;50.876;4.736;2023-11-22T12:48:20;9.27;;;5.35;;
8819;SDS011;4446;50.876;4.736;2023-11-22T12:50:50;9.18;;;5.00;;
8819;SDS011;4446;50.876;4.736;2023-11-22T12:53:17;8.93;;;5.20;;
8819;SDS011;4446;50.876;4.736;2023-11-22T12:55:47;14.48;;;5.88;;
8819;SDS011;4446;50.876;4.736;2023-11-22T12:58:15;9.68;;;6.00;;
8819;SDS011;4446;50.876;4.736;2023-11-22T13:00:43;13.55;;;5.35;;
8819;SDS011;4446;50.876;4.736;2023-11-22T13:03:11;12.20;;;5.40;;
8819;SDS011;4446;50.876;4.736;2023-11-22T13:05:38;9.68;;;5.40;;
8819;SDS011;4446;50.876;4.736;2023-11-22T13:08:12;10.10;;;5.38;;
8819;SDS011;4446;50.876;4.736;2023-11-22T13:10:39;9.48;;;5.43;;
8819;SDS011;4446;50.876;4.736;2023-11-22T13:13:06;10.05;;;5.15;;
8819;SDS011;4446;50.876;4.736;2023-11-22T13:15:35;17.10;;;5.63;;
8819;SDS011;4446;50.876;4.736;2023-11-22T13:18:02;9.23;;;4.82;;
8819;SDS011;4446;50.876;4.736;2023-11-22T13:20:31;11.85;;;5.00;;
8819;SDS011;4446;50.876;4.736;2023-11-22T13:22:58;11.65;;;5.97;;
8819;SDS011;4446;50.876;4.736;2023-11-22T13:25:27;8.55;;;4.95;;
8819;SDS011;4446;50.876;4.736;2023-11-22T13:27:55;9.65;;;5.38;;
8819;SDS011;4446;50.876;4.736;2023-11-22T13:30:22;7.30;;;4.20;;
8819;SDS011;4446;50.876;4.736;2023-11-22T13:32:50;8.90;;;4.45;;
8819;SDS011;4446;50.876;4.736;2023-11-22T13:35:19;9.63;;;5.20;;
8819;SDS011;4446;50.876;4.736;2023-11-22T13:37:47;8.93;;;4.93;;
8819;SDS011;4446;50.876;4.736;2023-11-22T13:40:15;11.05;;;5.28;;
8819;SDS011;4446;50.876;4.736;2023-11-22T13:42:48;8.63;;;4.90;;
8819;SDS011;4446;50.876;4.736;2023-11-22T13:45:18;10.20;;;5.13;;
8819;SDS011;4446;50.876;4.736;2023-11-22T13:47:46;9.02;;;4.95;;
8819;SDS011;4446;50.876;4.736;2023-11-22T13:50:14;10.30;;;5.55;;
8819;SDS011;4446;50.876;4.736;2023-11-22T13:52:44;10.45;;;5.50;;
8819;SDS011;4446;50.876;4.736;2023-11-22T13:55:11;11.00;;;5.03;;
8819;SDS011;4446;50.876;4.736;2023-11-22T13:57:39;9.75;;;5.20;;
8819;SDS011;4446;50.876;4.736;2023-11-22T14:00:08;9.52;;;5.25;;
8819;SDS011;4446;50.876;4.736;2023-11-22T14:02:37;12.05;;;6.03;;
8819;SDS011;4446;50.876;4.736;2023-11-22T14:05:06;11.38;;;6.10;;
8819;SDS011;4446;50.876;4.736;2023-11-22T14:07:34;10.38;;;5.20;;
8819;SDS011;4446;50.876;4.736;2023-11-22T14:10:02;10.10;;;5.60;;
8819;SDS011;4446;50.876;4.736;2023-11-22T14:12:31;9.05;;;5.07;;
8819;SDS011;4446;50.876;4.736;2023-11-22T14:14:59;10.93;;;5.90;;
8819;SDS011;4446;50.876;4.736;2023-11-22T14:17:27;13.05;;;5.80;;
8819;SDS011;4446;50.876;4.736;2023-11-22T14:19:54;10.32;;;5.10;;
8819;SDS011;4446;50.876;4.736;2023-11-22T14:22:21;9.55;;;5.40;;
8819;SDS011;4446;50.876;4.736;2023-11-22T14:24:49;8.63;;;4.40;;
8819;SDS011;4446;50.876;4.736;2023-11-22T14:27:17;11.50;;;5.97;;
8819;SDS011;4446;50.876;4.736;2023-11-22T14:29:44;9.32;;;4.90;;
8819;SDS011;4446;50.876;4.736;2023-11-22T14:32:13;10.90;;;5.40;;
8819;SDS011;4446;50.876;4.736;2023-11-22T14:34:42;8.52;;;4.57;;
8819;SDS011;4446;50.876;4.736;2023-11-22T14:37:09;10.45;;;5.22;;
8819;SDS011;4446;50.876;4.736;2023-11-22T14:39:37;10.10;;;5.22;;
8819;SDS011;4446;50.876;4.736;2023-11-22T14:42:04;7.47;;;4.07;;
8819;SDS011;4446;50.876;4.736;2023-11-22T14:44:32;7.25;;;4.28;;
8819;SDS011;4446;50.876;4.736;2023-11-22T14:46:59;9.80;;;5.07;;
8819;SDS011;4446;50.876;4.736;2023-11-22T14:49:30;9.57;;;5.28;;
8819;SDS011;4446;50.876;4.736;2023-11-22T14:51:59;9.52;;;4.88;;
8819;SDS011;4446;50.876;4.736;2023-11-22T14:54:27;9.30;;;5.13;;
8819;SDS011;4446;50.876;4.736;2023-11-22T14:56:54;10.88;;;5.38;;
8819;SDS011;4446;50.876;4.736;2023-11-22T14:59:26;10.18;;;5.22;;
8819;SDS011;4446;50.876;4.736;2023-11-22T15:01:53;10.85;;;5.28;;
8819;SDS011;4446;50.876;4.736;2023-11-22T15:04:21;8.75;;;4.70;;
8819;SDS011;4446;50.876;4.736;2023-11-22T15:06:48;12.32;;;5.40;;
8819;SDS011;4446;50.876;4.736;2023-11-22T15:09:17;10.23;;;5.32;;